createdAt,value
2019-04-20T00:00:21.012Z,53.03
2019-04-20T00:02:53.493Z,54.12
2019-04-20T00:05:19.559Z,54.57
2019-04-20T00:07:50.190Z,53.95
2019-04-20T00:10:21.596Z,53.69
2019-04-20T00:13:03.841Z,53.83
2019-04-20T00:15:19.727Z,53.92
2019-04-20T00:17:54.267Z,53.66
2019-04-20T00:20:24.611Z,53.74
2019-04-20T00:22:52.367Z,54.45
2019-04-20T00:25:23.504Z,54.32
2019-04-20T00:28:04.688Z,54.74
2019-04-20T00:30:38.892Z,54.59
2019-04-20T00:33:01.323Z,54.68
2019-04-20T00:35:20.863Z,54.57
2019-04-20T00:37:50.738Z,54.71
2019-04-20T00:40:19.508Z,54.66
2019-04-20T00:42:53.845Z,55.25
2019-04-20T00:45:25.781Z,55.81
2019-04-20T00:47:56.296Z,56.01
2019-04-20T00:50:37.483Z,56.58
2019-04-20T00:53:04.678Z,56.57
2019-04-20T00:55:20.903Z,56.43
2019-04-20T00:57:56.317Z,56.51
2019-04-20T01:00:39.688Z,56.60
2019-04-20T01:03:08.405Z,57.15
2019-04-20T01:05:43.357Z,56.95
2019-04-20T01:07:55.055Z,56.72
2019-04-20T01:10:21.512Z,56.87
2019-04-20T01:12:52.003Z,56.79
2019-04-20T01:15:28.074Z,57.53
2019-04-20T01:17:50.050Z,58.01
2019-04-20T01:20:22.691Z,57.83
2019-04-20T01:22:54.659Z,57.44
2019-04-20T01:25:27.238Z,57.28
2019-04-20T01:28:10.364Z,57.40
2019-04-20T01:30:28.346Z,57.69
2019-04-20T01:33:08.786Z,58.17
2019-04-20T01:38:16.878Z,58.14
2019-04-20T01:40:29.515Z,57.99
2019-04-20T01:42:59.537Z,57.77
2019-04-20T01:45:34.080Z,58.86
2019-04-20T01:48:01.275Z,59.24
2019-04-20T01:50:33.301Z,59.46
2019-04-20T01:53:11.531Z,58.97
2019-04-20T01:55:49.472Z,58.99
2019-04-20T01:58:19.455Z,59.26
2019-04-20T02:00:33.137Z,59.10
2019-04-20T02:03:03.836Z,58.94
2019-04-20T02:05:34.018Z,58.60
2019-04-20T02:08:00.320Z,58.89
2019-04-20T02:10:39.521Z,58.64
2019-04-20T02:13:04.237Z,59.09
2019-04-20T02:15:38.622Z,59.08
2019-04-20T02:18:16.243Z,59.16
2019-04-20T02:20:48.597Z,59.22
2019-04-20T02:23:14.552Z,59.43
2019-04-20T02:25:31.139Z,59.19
2019-04-20T02:28:19.207Z,58.84
2019-04-20T02:31:06.630Z,59.37
2019-04-20T02:33:43.011Z,59.29
2019-04-20T02:39:05.878Z,61.14
2019-04-20T02:41:11.479Z,60.76
2019-04-20T02:44:04.402Z,60.65
2019-04-20T02:46:12.302Z,59.93
2019-04-20T02:48:39.369Z,60.50
2019-04-20T02:51:13.256Z,60.36
2019-04-20T02:53:51.424Z,60.22
2019-04-20T02:56:12.332Z,60.00
2019-04-20T02:58:41.519Z,60.90
2019-04-20T03:03:27.635Z,60.73
2019-04-20T03:06:06.155Z,60.75
2019-04-20T03:08:38.232Z,60.51
2019-04-20T03:11:15.844Z,61.34
2019-04-20T03:13:45.663Z,61.37
2019-04-20T03:18:34.961Z,61.24
2019-04-20T03:21:12.870Z,61.05
2019-04-20T03:23:44.182Z,60.86
2019-04-20T03:26:10.968Z,61.57
2019-04-20T03:28:34.623Z,61.48
2019-04-20T03:31:29.785Z,61.54
2019-04-20T03:36:18.153Z,61.80
2019-04-20T03:38:38.634Z,61.87
2019-04-20T03:40:59.234Z,61.72
2019-04-20T03:43:18.214Z,61.98
2019-04-20T03:45:56.027Z,62.34
2019-04-20T03:48:35.979Z,62.07
2019-04-20T03:51:09.774Z,62.52
2019-04-20T03:53:39.731Z,62.80
2019-04-20T03:56:02.591Z,63.01
2019-04-20T03:58:37.943Z,63.20
2019-04-20T04:01:03.858Z,62.76
2019-04-20T04:03:48.724Z,62.91
2019-04-20T04:06:02.859Z,63.23
2019-04-20T04:08:27.799Z,63.54
2019-04-20T04:11:10.892Z,62.85
2019-04-20T04:13:18.768Z,62.85
2019-04-20T04:15:55.122Z,62.90
2019-04-20T04:18:26.012Z,62.90
2019-04-20T04:20:55.501Z,62.45
2019-04-20T04:23:38.072Z,62.50
2019-04-20T04:26:24.575Z,62.52
2019-04-20T04:28:37.393Z,63.01
2019-04-20T04:31:07.914Z,62.75
2019-04-20T04:36:08.920Z,63.72
2019-04-20T04:38:41.910Z,63.69
2019-04-20T04:41:18.287Z,63.30
2019-04-20T04:43:37.276Z,63.09
2019-04-20T04:45:48.906Z,63.12
2019-04-20T04:48:25.230Z,63.11
2019-04-20T04:50:57.348Z,63.33
2019-04-20T04:53:31.311Z,63.35
2019-04-20T04:55:57.540Z,64.08
2019-04-20T04:58:19.527Z,63.52
2019-04-20T05:00:49.359Z,63.54
2019-04-20T05:03:37.543Z,63.40
2019-04-20T05:06:10.396Z,65.47
2019-04-20T05:08:25.288Z,64.32
2019-04-20T05:10:48.285Z,63.86
2019-04-20T05:13:18.213Z,64.45
2019-04-20T05:16:05.234Z,63.59
2019-04-20T05:18:44.799Z,63.45
2019-04-20T05:21:13.034Z,62.58
2019-04-20T05:23:31.709Z,62.85
2019-04-20T05:26:10.051Z,62.02
2019-04-20T05:28:30.910Z,62.62
2019-04-20T05:30:52.564Z,61.75
2019-04-20T05:33:28.089Z,61.59
2019-04-20T05:36:06.786Z,61.07
2019-04-20T05:38:41.471Z,60.96
2019-04-20T05:41:08.862Z,60.29
2019-04-20T05:43:38.719Z,60.13
2019-04-20T05:46:06.239Z,60.01
2019-04-20T05:48:44.281Z,60.02
2019-04-20T05:51:01.992Z,59.72
2019-04-20T05:53:38.609Z,59.14
2019-04-20T05:56:06.049Z,58.99
2019-04-20T05:58:41.942Z,58.74
2019-04-20T06:01:18.570Z,60.20
2019-04-20T06:03:37.229Z,60.78
2019-04-20T06:08:53.752Z,58.75
2019-04-20T06:11:22.148Z,57.81
2019-04-20T06:13:42.461Z,57.23
2019-04-20T06:16:16.725Z,57.39
2019-04-20T06:18:44.098Z,57.41
2019-04-20T06:21:26.554Z,57.35
2019-04-20T06:23:51.559Z,56.48
2019-04-20T06:26:40.138Z,56.08
2019-04-20T06:28:42.703Z,54.82
2019-04-20T06:31:26.572Z,53.86
2019-04-20T06:34:27.723Z,54.45
2019-04-20T06:36:46.984Z,53.75
2019-04-20T06:39:16.075Z,53.58
2019-04-20T06:42:02.362Z,53.52
2019-04-20T06:44:14.788Z,54.59
2019-04-20T06:46:54.175Z,54.60
2019-04-20T06:49:27.493Z,53.55
2019-04-20T06:51:47.394Z,52.95
2019-04-20T06:54:03.200Z,53.71
2019-04-20T06:56:45.885Z,52.73
2019-04-20T07:02:03.932Z,52.12
2019-04-20T07:04:38.922Z,51.72
2019-04-20T07:07:03.517Z,52.34
2019-04-20T07:09:30.885Z,52.20
2019-04-20T07:11:50.536Z,51.68
2019-04-20T07:14:08.621Z,51.72
2019-04-20T07:16:51.157Z,52.35
2019-04-20T07:19:25.329Z,51.10
2019-04-20T07:24:24.862Z,52.06
2019-04-20T07:26:59.213Z,51.94
2019-04-20T07:29:31.948Z,52.46
2019-04-20T07:31:48.728Z,51.70
2019-04-20T07:37:28.183Z,50.49
2019-04-20T07:42:27.251Z,51.10
2019-04-20T07:44:55.475Z,51.23
2019-04-20T07:47:33.063Z,49.65
2019-04-20T07:49:52.366Z,50.38
2019-04-20T07:52:08.156Z,49.70
2019-04-20T07:55:19.297Z,50.70
2019-04-20T07:57:32.584Z,51.51
2019-04-20T08:02:51.735Z,50.56
2019-04-20T08:05:11.943Z,50.72
2019-04-20T08:07:42.307Z,51.26
2019-04-20T08:10:05.679Z,48.99
2019-04-20T08:12:58.398Z,49.30
2019-04-20T08:15:32.219Z,48.84
2019-04-20T08:18:06.436Z,48.35
2019-04-20T08:20:26.732Z,47.83
2019-04-20T08:25:56.088Z,46.76
2019-04-20T08:28:24.244Z,46.48
2019-04-20T08:39:51.066Z,45.61
2019-04-20T08:45:32.891Z,44.21
2019-04-20T08:47:56.830Z,44.64
2019-04-20T08:50:22.442Z,44.06
2019-04-20T08:53:15.984Z,44.72
2019-04-20T08:55:28.159Z,43.92
2019-04-20T09:00:45.997Z,42.97
2019-04-20T09:08:55.106Z,41.08
2019-04-20T09:11:31.135Z,42.54
2019-04-20T09:13:53.056Z,41.67
2019-04-20T09:16:26.969Z,40.90
2019-04-20T09:19:03.878Z,39.85
2019-04-20T09:24:49.093Z,42.05
2019-04-20T09:29:49.417Z,39.73
2019-04-20T09:32:29.040Z,38.82
2019-04-20T09:48:33.457Z,31.26
2019-04-20T09:51:17.008Z,32.10
2019-04-20T09:53:41.952Z,32.93
2019-04-20T09:56:14.386Z,32.73
2019-04-20T09:58:45.193Z,31.15
2019-04-20T10:01:09.782Z,32.21
2019-04-20T10:03:24.977Z,31.64
2019-04-20T10:05:55.925Z,31.86
2019-04-20T10:08:25.980Z,31.39
2019-04-20T10:10:56.066Z,30.57
2019-04-20T10:13:27.057Z,31.44
2019-04-20T10:15:55.615Z,32.13
2019-04-20T10:18:26.023Z,32.63
2019-04-20T10:20:55.889Z,31.15
2019-04-20T10:23:26.844Z,31.43
2019-04-20T10:25:56.565Z,29.94
2019-04-20T10:28:27.697Z,31.39
2019-04-20T10:30:56.751Z,32.48
2019-04-20T10:33:27.827Z,32.89
2019-04-20T10:35:57.459Z,33.49
2019-04-20T10:38:27.574Z,33.08
2019-04-20T10:41:06.110Z,33.47
2019-04-20T10:43:28.151Z,34.12
2019-04-20T10:45:57.236Z,34.06
2019-04-20T10:48:27.157Z,33.04
2019-04-20T10:50:57.260Z,32.48
2019-04-20T10:53:27.971Z,32.86
2019-04-20T10:55:57.794Z,33.42
2019-04-20T10:58:27.600Z,32.20
2019-04-20T11:00:57.717Z,31.70
2019-04-20T11:03:28.806Z,31.80
2019-04-20T11:05:58.531Z,32.74
2019-04-20T11:08:28.587Z,32.57
2019-04-20T11:11:07.136Z,32.75
2019-04-20T11:13:27.667Z,31.89
2019-04-20T11:15:57.357Z,31.82
2019-04-20T11:18:27.649Z,30.61
2019-04-20T11:20:57.610Z,30.67
2019-04-20T11:23:28.667Z,30.77
2019-04-20T11:25:58.117Z,30.78
2019-04-20T11:28:28.204Z,30.76
2019-04-20T11:30:58.526Z,29.45
2019-04-20T11:33:28.267Z,29.59
2019-04-20T11:35:59.150Z,28.59
2019-04-20T11:38:28.395Z,29.98
2019-04-20T11:41:10.014Z,28.46
2019-04-20T11:43:29.295Z,27.95
2019-04-20T11:45:58.486Z,28.62
2019-04-20T11:48:29.428Z,28.48
2019-04-20T11:50:58.541Z,29.24
2019-04-20T11:53:28.687Z,29.24
2019-04-20T11:55:58.755Z,28.25
2019-04-20T11:58:28.704Z,29.61
2019-04-20T12:01:04.140Z,30.26
2019-04-20T12:03:37.882Z,28.83
2019-04-20T12:06:03.177Z,29.48
2019-04-20T12:08:29.571Z,27.23
2019-04-20T12:11:06.073Z,28.22
2019-04-20T12:16:09.878Z,28.01
2019-04-20T12:18:39.077Z,28.61
2019-04-20T12:21:08.992Z,27.88
2019-04-20T12:23:40.333Z,27.47
2019-04-20T12:26:10.806Z,27.70
2019-04-20T12:28:40.121Z,27.16
2019-04-20T12:31:14.790Z,26.49
2019-04-20T12:33:40.240Z,27.57
2019-04-20T12:36:10.300Z,25.14
2019-04-20T12:38:41.210Z,26.72
2019-04-20T12:41:12.525Z,25.90
2019-04-20T12:43:39.840Z,26.20
2019-04-20T12:46:10.095Z,25.86
2019-04-20T12:48:41.794Z,26.73
2019-04-20T12:51:11.376Z,26.28
2019-04-20T12:53:40.736Z,27.96
2019-04-20T12:56:10.658Z,25.75
2019-04-20T12:58:43.406Z,25.49
2019-04-20T13:01:12.092Z,24.23
2019-04-20T13:03:41.582Z,25.17
2019-04-20T13:06:12.122Z,23.98
2019-04-20T13:08:45.136Z,23.11
2019-04-20T13:11:12.882Z,24.71
2019-04-20T13:13:41.381Z,26.11
2019-04-20T13:16:12.252Z,26.36
2019-04-20T13:18:43.259Z,26.57
2019-04-20T13:21:13.165Z,26.91
2019-04-20T13:23:42.779Z,26.97
2019-04-20T13:26:13.659Z,27.02
2019-04-20T13:28:43.293Z,27.10
2019-04-20T13:31:12.078Z,27.26
2019-04-20T13:33:43.208Z,27.43
2019-04-20T13:36:12.498Z,26.85
2019-04-20T13:38:42.016Z,27.12
2019-04-20T13:41:12.151Z,27.59
2019-04-20T13:43:43.814Z,27.48
2019-04-20T13:46:13.314Z,27.01
2019-04-20T13:48:42.691Z,27.58
2019-04-20T13:51:12.719Z,26.82
2019-04-20T13:53:43.362Z,26.47
2019-04-20T13:56:13.745Z,26.71
2019-04-20T13:58:43.593Z,26.64
2019-04-20T14:01:12.815Z,27.86
2019-04-20T14:03:42.932Z,25.80
2019-04-20T14:06:12.737Z,26.65
2019-04-20T14:08:43.241Z,26.40
2019-04-20T14:11:13.458Z,26.03
2019-04-20T14:13:49.007Z,26.56
2019-04-20T14:16:14.339Z,26.72
2019-04-20T14:18:43.108Z,26.66
2019-04-20T14:21:14.216Z,27.44
2019-04-20T14:23:43.289Z,26.80
2019-04-20T14:26:13.205Z,27.38
2019-04-20T14:28:43.137Z,27.70
2019-04-20T14:31:14.104Z,27.12
2019-04-20T14:33:43.030Z,26.58
2019-04-20T14:36:12.968Z,26.27
2019-04-20T14:38:45.330Z,25.77
2019-04-20T14:41:13.252Z,27.42
2019-04-20T14:43:43.185Z,26.56
2019-04-20T14:46:13.131Z,26.73
2019-04-20T14:48:44.869Z,26.51
2019-04-20T14:51:13.942Z,27.70
2019-04-20T14:53:43.744Z,27.94
2019-04-20T14:56:14.043Z,26.88
2019-04-20T14:58:45.154Z,27.19
2019-04-20T15:01:14.383Z,26.85
2019-04-20T15:03:45.412Z,26.35
2019-04-20T15:06:13.795Z,27.64
2019-04-20T15:08:44.956Z,27.08
2019-04-20T15:11:14.740Z,27.73
2019-04-20T15:13:44.733Z,27.24
2019-04-20T15:16:15.051Z,27.69
2019-04-20T15:18:45.054Z,27.45
2019-04-20T15:21:13.863Z,27.88
2019-04-20T15:23:45.619Z,28.70
2019-04-20T15:26:14.433Z,28.74
2019-04-20T15:28:44.648Z,27.97
2019-04-20T15:31:14.606Z,28.59
2019-04-20T15:33:45.267Z,29.62
2019-04-20T15:36:15.907Z,28.88
2019-04-20T15:38:45.115Z,29.28
2019-04-20T15:41:16.744Z,29.17
2019-04-20T15:43:45.719Z,30.17
2019-04-20T15:46:17.114Z,29.42
2019-04-20T15:48:46.220Z,28.83
2019-04-20T15:51:17.326Z,29.00
2019-04-20T15:53:47.385Z,28.57
2019-04-20T15:56:16.612Z,29.01
2019-04-20T15:58:46.404Z,28.10
2019-04-20T16:01:16.426Z,28.14
2019-04-20T16:03:47.555Z,27.56
2019-04-20T16:06:17.081Z,27.63
2019-04-20T16:08:48.087Z,27.76
2019-04-20T16:11:17.311Z,28.27
2019-04-20T16:13:50.424Z,28.90
2019-04-20T16:16:17.202Z,28.78
2019-04-20T16:18:48.468Z,29.22
2019-04-20T16:21:22.430Z,30.49
2019-04-20T16:23:48.530Z,30.19
2019-04-20T16:28:57.657Z,30.75
2019-04-20T16:36:46.454Z,29.23
2019-04-20T16:39:16.648Z,28.64
2019-04-20T16:41:46.588Z,29.69
2019-04-20T16:44:17.542Z,30.28
2019-04-20T16:46:48.082Z,30.66
2019-04-20T16:49:17.030Z,31.48
2019-04-20T16:51:47.150Z,31.19
2019-04-20T16:54:17.695Z,29.68
2019-04-20T16:56:47.146Z,29.80
2019-04-20T16:59:17.819Z,29.52
2019-04-20T17:01:47.018Z,29.99
2019-04-20T17:04:20.544Z,31.67
2019-04-20T17:06:47.770Z,30.86
2019-04-20T17:09:17.888Z,31.59
2019-04-20T17:11:47.712Z,32.11
2019-04-20T17:14:17.903Z,32.28
2019-04-20T17:16:47.692Z,32.50
2019-04-20T17:21:57.413Z,32.78
2019-04-20T17:24:27.489Z,33.20
2019-04-20T17:26:57.424Z,33.77
2019-04-20T17:32:08.059Z,34.21
2019-04-20T17:34:54.523Z,35.34
2019-04-20T17:37:06.950Z,34.23
2019-04-20T17:39:55.276Z,34.72
2019-04-20T17:42:19.576Z,34.75
2019-04-20T17:47:37.618Z,36.38
2019-04-20T17:50:08.346Z,37.19
2019-04-20T17:52:36.661Z,36.17
2019-04-20T17:54:47.306Z,35.67
2019-04-20T17:57:17.138Z,36.56
2019-04-20T17:59:53.226Z,37.23
2019-04-20T18:02:30.770Z,36.08
2019-04-20T18:07:46.303Z,35.76
2019-04-20T18:10:17.243Z,36.27
2019-04-20T18:12:35.203Z,36.51
2019-04-20T18:15:17.021Z,36.66
2019-04-20T18:17:40.219Z,37.20
2019-04-20T18:19:56.903Z,37.70
2019-04-20T18:22:27.698Z,38.38
2019-04-20T18:25:20.882Z,39.24
2019-04-20T18:27:41.127Z,39.71
2019-04-20T18:30:14.781Z,40.41
2019-04-20T18:32:27.463Z,41.12
2019-04-20T18:35:00.858Z,41.92
2019-04-20T18:37:28.347Z,42.30
2019-04-20T18:40:03.191Z,42.85
2019-04-20T18:42:31.323Z,42.74
2019-04-20T18:45:12.818Z,42.96
2019-04-20T18:47:45.512Z,42.69
2019-04-20T18:50:07.683Z,43.45
2019-04-20T18:52:27.527Z,43.68
2019-04-20T18:54:57.580Z,43.52
2019-04-20T18:57:29.675Z,43.82
2019-04-20T18:59:58.665Z,44.18
2019-04-20T19:02:30.897Z,44.68
2019-04-20T19:04:59.920Z,44.84
2019-04-20T19:07:27.999Z,47.59
2019-04-20T19:10:05.087Z,45.93
2019-04-20T19:12:31.101Z,45.98
2019-04-20T19:15:12.115Z,45.81
2019-04-20T19:17:42.012Z,45.89
2019-04-20T19:19:59.654Z,45.88
2019-04-20T19:22:28.037Z,45.89
2019-04-20T19:27:43.408Z,46.81
2019-04-20T19:30:21.215Z,47.71
2019-04-20T19:32:56.293Z,47.26
2019-04-20T19:38:00.700Z,46.85
2019-04-20T19:40:36.045Z,47.39
2019-04-20T19:43:02.533Z,46.54
2019-04-20T19:45:42.386Z,47.55
2019-04-20T19:48:07.790Z,47.34
2019-04-20T19:50:41.342Z,47.79
2019-04-20T19:53:19.991Z,47.57
2019-04-20T19:55:34.115Z,47.57
2019-04-20T19:58:03.935Z,47.34
2019-04-20T20:02:59.516Z,46.79
2019-04-20T20:05:35.092Z,47.95
2019-04-20T20:08:06.441Z,48.24
2019-04-20T20:13:09.989Z,48.03
2019-04-20T20:15:41.771Z,48.28
2019-04-20T20:18:27.040Z,48.40
2019-04-20T20:20:55.429Z,48.30
2019-04-20T20:23:10.231Z,48.43
2019-04-20T20:25:44.871Z,48.59
2019-04-20T20:28:21.535Z,48.71
2019-04-20T20:30:53.689Z,48.49
2019-04-20T20:33:30.660Z,48.43
2019-04-20T20:35:46.939Z,48.47
2019-04-20T20:38:22.527Z,48.48
2019-04-20T20:40:54.855Z,48.79
2019-04-20T20:43:21.816Z,49.02
2019-04-20T20:48:37.957Z,48.82
2019-04-20T20:51:10.555Z,49.09
2019-04-20T20:53:41.412Z,48.88
2019-04-20T20:56:07.877Z,48.87
2019-04-20T20:58:36.133Z,48.07
2019-04-20T21:01:03.759Z,48.32
2019-04-20T21:03:31.260Z,47.68
2019-04-20T21:05:53.947Z,48.13
2019-04-20T21:08:23.962Z,48.15
2019-04-20T21:10:54.741Z,47.91
2019-04-20T21:13:27.049Z,48.07
2019-04-20T21:16:02.999Z,47.88
2019-04-20T21:18:44.883Z,48.45
2019-04-20T21:21:11.728Z,48.59
2019-04-20T21:23:36.850Z,48.48
2019-04-20T21:25:55.293Z,48.92
2019-04-20T21:28:24.724Z,48.95
2019-04-20T21:30:59.904Z,49.32
2019-04-20T21:36:04.991Z,48.36
2019-04-20T21:38:38.660Z,48.64
2019-04-20T21:41:09.490Z,49.07
2019-04-20T21:43:38.772Z,49.54
2019-04-20T21:46:06.672Z,49.38
2019-04-20T21:48:48.931Z,49.69
2019-04-20T21:51:19.091Z,49.76
2019-04-20T21:53:35.327Z,49.51
2019-04-20T21:56:03.910Z,49.90
2019-04-20T21:58:42.667Z,49.82
2019-04-20T22:01:13.475Z,49.93
2019-04-20T22:03:34.302Z,50.22
2019-04-20T22:06:04.770Z,50.16
2019-04-20T22:08:34.640Z,50.39
2019-04-20T22:11:04.276Z,50.14
2019-04-20T22:13:38.852Z,50.62
2019-04-20T22:16:08.772Z,50.74
2019-04-20T22:18:48.407Z,50.58
2019-04-20T22:21:14.721Z,50.26
2019-04-20T22:23:51.436Z,48.51
2019-04-20T22:26:17.620Z,50.05
2019-04-20T22:28:35.968Z,50.50
2019-04-20T22:31:06.326Z,50.85
2019-04-20T22:33:39.401Z,50.81
2019-04-20T22:36:07.856Z,51.19
2019-04-20T22:38:39.734Z,51.43
2019-04-20T22:41:13.249Z,52.03
2019-04-20T22:43:38.399Z,51.74
2019-04-20T22:46:05.640Z,51.54
2019-04-20T22:48:38.460Z,51.55
2019-04-20T22:51:22.364Z,51.47
2019-04-20T22:53:48.511Z,51.69
2019-04-20T22:56:27.091Z,51.96
2019-04-20T22:58:50.028Z,51.77
2019-04-20T23:01:17.509Z,51.90
2019-04-20T23:03:36.752Z,52.19
2019-04-20T23:06:06.830Z,52.10
2019-04-20T23:08:35.760Z,52.64
2019-04-20T23:11:14.891Z,53.00
2019-04-20T23:13:41.222Z,53.22
2019-04-20T23:16:07.442Z,52.73
2019-04-20T23:18:36.113Z,52.67
2019-04-20T23:21:10.208Z,52.87
2019-04-20T23:23:37.312Z,53.01
2019-04-20T23:26:07.160Z,53.32
2019-04-20T23:28:42.112Z,53.12
2019-04-20T23:31:11.876Z,53.51
2019-04-20T23:33:36.139Z,53.48
2019-04-20T23:36:07.841Z,53.50
2019-04-20T23:38:36.734Z,53.33
2019-04-20T23:41:07.897Z,53.29
2019-04-20T23:43:38.449Z,53.06
2019-04-20T23:46:09.321Z,53.41
2019-04-20T23:48:41.220Z,53.24
2019-04-20T23:51:28.996Z,53.72
2019-04-20T23:53:48.168Z,53.77
2019-04-20T23:56:07.876Z,53.44
2019-04-20T23:58:42.967Z,53.61
